sensor_id;sensor_type;location;lat;lon;timestamp;temperature;humidity
10312;DHT22;5201;48.776;9.128;2023-08-08T00:01:53;14.70;99.90
10312;DHT22;5201;48.776;9.128;2023-08-08T00:04:19;14.70;99.90
10312;DHT22;5201;48.776;9.128;2023-08-08T00:06:44;15.40;99.90
10312;DHT22;5201;48.776;9.128;2023-08-08T00:09:10;14.80;99.90
10312;DHT22;5201;48.776;9.128;2023-08-08T00:11:35;14.90;99.90
10312;DHT22;5201;48.776;9.128;2023-08-08T00:14:01;14.90;99.90
10312;DHT22;5201;48.776;9.128;2023-08-08T00:16:27;14.90;99.90
10312;DHT22;5201;48.776;9.128;2023-08-08T00:18:52;14.90;99.90
10312;DHT22;5201;48.776;9.128;2023-08-08T00:21:19;15.00;99.90
10312;DHT22;5201;48.776;9.128;2023-08-08T00:23:45;15.20;99.90
10312;DHT22;5201;48.776;9.128;2023-08-08T00:26:11;15.10;99.90
10312;DHT22;5201;48.776;9.128;2023-08-08T00:28:37;15.30;99.90
10312;DHT22;5201;48.776;9.128;2023-08-08T00:31:03;15.10;99.90
10312;DHT22;5201;48.776;9.128;2023-08-08T00:33:28;15.10;99.90
10312;DHT22;5201;48.776;9.128;2023-08-08T00:35:54;15.40;99.90
10312;DHT22;5201;48.776;9.128;2023-08-08T00:38:20;15.20;99.90
10312;DHT22;5201;48.776;9.128;2023-08-08T00:40:45;15.20;99.90
10312;DHT22;5201;48.776;9.128;2023-08-08T00:43:11;15.20;99.90
10312;DHT22;5201;48.776;9.128;2023-08-08T00:45:37;15.20;99.90
10312;DHT22;5201;48.776;9.128;2023-08-08T00:48:04;15.20;99.90
10312;DHT22;5201;48.776;9.128;2023-08-08T00:50:29;15.30;99.90
10312;DHT22;5201;48.776;9.128;2023-08-08T00:52:55;15.20;99.90
10312;DHT22;5201;48.776;9.128;2023-08-08T00:55:21;15.20;99.90
10312;DHT22;5201;48.776;9.128;2023-08-08T00:57:47;15.30;99.90
10312;DHT22;5201;48.776;9.128;2023-08-08T01:00:13;15.30;99.90
10312;DHT22;5201;48.776;9.128;2023-08-08T01:02:38;15.30;99.90
10312;DHT22;5201;48.776;9.128;2023-08-08T01:05:05;15.30;99.90
10312;DHT22;5201;48.776;9.128;2023-08-08T01:07:54;15.20;99.90
10312;DHT22;5201;48.776;9.128;2023-08-08T01:10:29;15.20;99.90
10312;DHT22;5201;48.776;9.128;2023-08-08T01:13:09;15.30;99.90
10312;DHT22;5201;48.776;9.128;2023-08-08T01:15:36;15.30;99.90
10312;DHT22;5201;48.776;9.128;2023-08-08T01:18:07;15.30;99.90
10312;DHT22;5201;48.776;9.128;2023-08-08T01:20:33;15.30;99.90
10312;DHT22;5201;48.776;9.128;2023-08-08T01:25:52;15.30;99.90
10312;DHT22;5201;48.776;9.128;2023-08-08T01:28:22;15.30;99.90
10312;DHT22;5201;48.776;9.128;2023-08-08T01:30:48;15.30;99.90
10312;DHT22;5201;48.776;9.128;2023-08-08T01:33:13;15.30;99.90
10312;DHT22;5201;48.776;9.128;2023-08-08T01:35:43;15.20;99.90
10312;DHT22;5201;48.776;9.128;2023-08-08T01:38:34;15.30;99.90
10312;DHT22;5201;48.776;9.128;2023-08-08T01:41:02;15.30;99.90
10312;DHT22;5201;48.776;9.128;2023-08-08T01:43:30;15.30;99.90
10312;DHT22;5201;48.776;9.128;2023-08-08T01:45:56;15.20;99.90
10312;DHT22;5201;48.776;9.128;2023-08-08T01:48:22;15.30;99.90
10312;DHT22;5201;48.776;9.128;2023-08-08T01:50:48;15.20;99.90
10312;DHT22;5201;48.776;9.128;2023-08-08T01:53:13;15.30;99.90
10312;DHT22;5201;48.776;9.128;2023-08-08T01:55:39;15.30;99.90
10312;DHT22;5201;48.776;9.128;2023-08-08T01:58:05;15.40;99.90
10312;DHT22;5201;48.776;9.128;2023-08-08T02:00:31;15.30;99.90
10312;DHT22;5201;48.776;9.128;2023-08-08T02:02:57;15.60;99.90
10312;DHT22;5201;48.776;9.128;2023-08-08T02:05:23;15.30;99.90
10312;DHT22;5201;48.776;9.128;2023-08-08T02:07:49;15.20;99.90
10312;DHT22;5201;48.776;9.128;2023-08-08T02:10:14;15.20;99.90
10312;DHT22;5201;48.776;9.128;2023-08-08T02:12:40;15.30;99.90
10312;DHT22;5201;48.776;9.128;2023-08-08T02:15:06;15.30;99.90
10312;DHT22;5201;48.776;9.128;2023-08-08T02:17:32;15.30;99.90
10312;DHT22;5201;48.776;9.128;2023-08-08T02:19:57;15.30;99.90
10312;DHT22;5201;48.776;9.128;2023-08-08T02:22:23;15.10;99.90
10312;DHT22;5201;48.776;9.128;2023-08-08T02:24:49;15.10;99.90
10312;DHT22;5201;48.776;9.128;2023-08-08T02:27:14;15.10;99.90
10312;DHT22;5201;48.776;9.128;2023-08-08T02:29:40;15.70;99.90
10312;DHT22;5201;48.776;9.128;2023-08-08T02:32:05;15.00;99.90
10312;DHT22;5201;48.776;9.128;2023-08-08T02:34:31;14.90;99.90
10312;DHT22;5201;48.776;9.128;2023-08-08T02:36:57;14.90;99.90
10312;DHT22;5201;48.776;9.128;2023-08-08T02:39:22;14.90;99.90
10312;DHT22;5201;48.776;9.128;2023-08-08T02:41:48;14.90;99.90
10312;DHT22;5201;48.776;9.128;2023-08-08T02:44:14;14.80;99.90
10312;DHT22;5201;48.776;9.128;2023-08-08T02:46:39;14.80;99.90
10312;DHT22;5201;48.776;9.128;2023-08-08T02:49:05;14.80;99.90
10312;DHT22;5201;48.776;9.128;2023-08-08T02:51:30;14.70;99.90
10312;DHT22;5201;48.776;9.128;2023-08-08T02:53:56;14.70;99.90
10312;DHT22;5201;48.776;9.128;2023-08-08T02:56:21;14.70;99.90
10312;DHT22;5201;48.776;9.128;2023-08-08T02:58:47;14.70;99.90
10312;DHT22;5201;48.776;9.128;2023-08-08T03:01:12;14.70;99.90
10312;DHT22;5201;48.776;9.128;2023-08-08T03:03:40;14.60;99.90
10312;DHT22;5201;48.776;9.128;2023-08-08T03:06:06;14.60;99.90
10312;DHT22;5201;48.776;9.128;2023-08-08T03:08:31;14.60;99.90
10312;DHT22;5201;48.776;9.128;2023-08-08T03:10:57;14.60;99.90
10312;DHT22;5201;48.776;9.128;2023-08-08T03:13:22;15.10;99.90
10312;DHT22;5201;48.776;9.128;2023-08-08T03:15:48;14.50;99.90
10312;DHT22;5201;48.776;9.128;2023-08-08T03:18:14;14.50;99.90
10312;DHT22;5201;48.776;9.128;2023-08-08T03:20:39;14.50;99.90
10312;DHT22;5201;48.776;9.128;2023-08-08T03:23:05;14.70;99.90
10312;DHT22;5201;48.776;9.128;2023-08-08T03:25:31;14.50;99.90
10312;DHT22;5201;48.776;9.128;2023-08-08T03:27:56;14.50;99.90
10312;DHT22;5201;48.776;9.128;2023-08-08T03:30:22;14.50;99.90
10312;DHT22;5201;48.776;9.128;2023-08-08T03:32:47;14.50;99.90
10312;DHT22;5201;48.776;9.128;2023-08-08T03:35:13;14.60;99.90
10312;DHT22;5201;48.776;9.128;2023-08-08T03:37:40;14.50;99.90
10312;DHT22;5201;48.776;9.128;2023-08-08T03:40:07;14.50;99.90
10312;DHT22;5201;48.776;9.128;2023-08-08T03:42:33;14.50;99.90
10312;DHT22;5201;48.776;9.128;2023-08-08T03:44:59;14.70;99.90
10312;DHT22;5201;48.776;9.128;2023-08-08T03:47:24;14.60;99.90
10312;DHT22;5201;48.776;9.128;2023-08-08T03:49:50;14.60;99.90
10312;DHT22;5201;48.776;9.128;2023-08-08T03:52:16;14.60;99.90
10312;DHT22;5201;48.776;9.128;2023-08-08T03:54:42;14.70;99.90
10312;DHT22;5201;48.776;9.128;2023-08-08T03:57:08;14.60;99.90
10312;DHT22;5201;48.776;9.128;2023-08-08T03:59:33;14.70;99.90
10312;DHT22;5201;48.776;9.128;2023-08-08T04:01:59;15.10;99.90
10312;DHT22;5201;48.776;9.128;2023-08-08T04:04:24;14.70;99.90
10312;DHT22;5201;48.776;9.128;2023-08-08T04:06:50;14.70;99.90
10312;DHT22;5201;48.776;9.128;2023-08-08T04:09:15;14.70;99.90
10312;DHT22;5201;48.776;9.128;2023-08-08T04:11:41;14.70;99.90
10312;DHT22;5201;48.776;9.128;2023-08-08T04:14:07;14.70;99.90
10312;DHT22;5201;48.776;9.128;2023-08-08T04:16:32;14.90;99.90
10312;DHT22;5201;48.776;9.128;2023-08-08T04:18:58;14.70;99.90
10312;DHT22;5201;48.776;9.128;2023-08-08T04:21:24;14.70;99.90
10312;DHT22;5201;48.776;9.128;2023-08-08T04:23:52;15.10;99.90
10312;DHT22;5201;48.776;9.128;2023-08-08T04:26:18;15.40;99.90
10312;DHT22;5201;48.776;9.128;2023-08-08T04:28:43;14.70;99.90
10312;DHT22;5201;48.776;9.128;2023-08-08T04:31:09;14.90;99.90
10312;DHT22;5201;48.776;9.128;2023-08-08T04:33:34;14.80;99.90
10312;DHT22;5201;48.776;9.128;2023-08-08T04:36:00;15.40;99.90
10312;DHT22;5201;48.776;9.128;2023-08-08T04:38:26;15.20;99.90
10312;DHT22;5201;48.776;9.128;2023-08-08T04:40:51;15.10;99.90
10312;DHT22;5201;48.776;9.128;2023-08-08T04:43:17;14.80;99.90
10312;DHT22;5201;48.776;9.128;2023-08-08T04:45:42;14.80;99.90
10312;DHT22;5201;48.776;9.128;2023-08-08T04:48:08;15.10;99.90
10312;DHT22;5201;48.776;9.128;2023-08-08T04:50:33;14.80;99.90
10312;DHT22;5201;48.776;9.128;2023-08-08T04:52:59;14.90;99.90
10312;DHT22;5201;48.776;9.128;2023-08-08T04:55:26;15.10;99.90
10312;DHT22;5201;48.776;9.128;2023-08-08T04:57:52;14.80;99.90
10312;DHT22;5201;48.776;9.128;2023-08-08T05:00:17;14.90;99.90
10312;DHT22;5201;48.776;9.128;2023-08-08T05:02:43;14.90;99.90
10312;DHT22;5201;48.776;9.128;2023-08-08T05:05:09;14.90;99.90
10312;DHT22;5201;48.776;9.128;2023-08-08T05:07:34;15.70;99.90
10312;DHT22;5201;48.776;9.128;2023-08-08T05:10:03;14.90;99.90
10312;DHT22;5201;48.776;9.128;2023-08-08T05:12:29;15.00;99.90
10312;DHT22;5201;48.776;9.128;2023-08-08T05:14:55;14.90;99.90
10312;DHT22;5201;48.776;9.128;2023-08-08T05:17:20;14.90;99.90
10312;DHT22;5201;48.776;9.128;2023-08-08T05:19:46;15.00;99.90
10312;DHT22;5201;48.776;9.128;2023-08-08T05:22:11;14.90;99.90
10312;DHT22;5201;48.776;9.128;2023-08-08T05:24:37;15.10;99.90
10312;DHT22;5201;48.776;9.128;2023-08-08T05:27:03;15.50;99.90
10312;DHT22;5201;48.776;9.128;2023-08-08T05:29:29;15.10;99.90
10312;DHT22;5201;48.776;9.128;2023-08-08T05:31:54;15.00;99.90
10312;DHT22;5201;48.776;9.128;2023-08-08T05:34:20;15.20;99.90
10312;DHT22;5201;48.776;9.128;2023-08-08T05:36:46;14.30;99.90
10312;DHT22;5201;48.776;9.128;2023-08-08T05:39:11;15.10;99.90
10312;DHT22;5201;48.776;9.128;2023-08-08T05:41:37;15.40;99.90
10312;DHT22;5201;48.776;9.128;2023-08-08T05:44:02;15.30;99.90
10312;DHT22;5201;48.776;9.128;2023-08-08T05:46:28;15.30;99.90
10312;DHT22;5201;48.776;9.128;2023-08-08T05:48:54;15.40;99.90
10312;DHT22;5201;48.776;9.128;2023-08-08T05:51:19;15.40;99.90
10312;DHT22;5201;48.776;9.128;2023-08-08T05:53:45;15.50;99.90
10312;DHT22;5201;48.776;9.128;2023-08-08T05:56:11;15.50;99.90
10312;DHT22;5201;48.776;9.128;2023-08-08T05:58:37;15.50;99.90
10312;DHT22;5201;48.776;9.128;2023-08-08T06:01:03;15.60;99.90
10312;DHT22;5201;48.776;9.128;2023-08-08T06:03:31;15.60;99.90
10312;DHT22;5201;48.776;9.128;2023-08-08T06:05:57;15.80;99.90
10312;DHT22;5201;48.776;9.128;2023-08-08T06:08:23;15.80;99.90
10312;DHT22;5201;48.776;9.128;2023-08-08T06:10:48;16.10;99.90
10312;DHT22;5201;48.776;9.128;2023-08-08T06:13:14;15.90;99.90
10312;DHT22;5201;48.776;9.128;2023-08-08T06:15:39;16.10;99.90
10312;DHT22;5201;48.776;9.128;2023-08-08T06:18:05;16.10;99.90
10312;DHT22;5201;48.776;9.128;2023-08-08T06:20:31;16.30;99.90
10312;DHT22;5201;48.776;9.128;2023-08-08T06:22:57;16.50;99.90
10312;DHT22;5201;48.776;9.128;2023-08-08T06:25:22;16.60;99.90
10312;DHT22;5201;48.776;9.128;2023-08-08T06:27:48;16.80;99.90
10312;DHT22;5201;48.776;9.128;2023-08-08T06:30:14;17.00;99.90
10312;DHT22;5201;48.776;9.128;2023-08-08T06:32:40;17.10;99.90
10312;DHT22;5201;48.776;9.128;2023-08-08T06:35:06;17.70;99.90
10312;DHT22;5201;48.776;9.128;2023-08-08T06:37:32;17.40;99.90
10312;DHT22;5201;48.776;9.128;2023-08-08T06:39:58;17.40;99.90
10312;DHT22;5201;48.776;9.128;2023-08-08T06:42:23;17.50;99.90
10312;DHT22;5201;48.776;9.128;2023-08-08T06:44:49;17.50;99.90
10312;DHT22;5201;48.776;9.128;2023-08-08T06:47:15;17.50;99.90
10312;DHT22;5201;48.776;9.128;2023-08-08T06:49:40;17.50;99.90
10312;DHT22;5201;48.776;9.128;2023-08-08T06:52:06;17.60;99.90
10312;DHT22;5201;48.776;9.128;2023-08-08T06:54:32;17.70;99.90
10312;DHT22;5201;48.776;9.128;2023-08-08T06:56:58;17.80;99.90
10312;DHT22;5201;48.776;9.128;2023-08-08T06:59:24;18.20;99.90
10312;DHT22;5201;48.776;9.128;2023-08-08T07:01:50;18.10;99.90
10312;DHT22;5201;48.776;9.128;2023-08-08T07:04:16;18.20;99.90
10312;DHT22;5201;48.776;9.128;2023-08-08T07:06:43;18.40;99.90
10312;DHT22;5201;48.776;9.128;2023-08-08T07:09:08;18.70;99.90
10312;DHT22;5201;48.776;9.128;2023-08-08T07:11:37;19.00;99.90
10312;DHT22;5201;48.776;9.128;2023-08-08T07:14:03;18.70;99.90
10312;DHT22;5201;48.776;9.128;2023-08-08T07:16:28;18.90;99.90
10312;DHT22;5201;48.776;9.128;2023-08-08T07:18:54;18.80;99.90
10312;DHT22;5201;48.776;9.128;2023-08-08T07:21:20;18.90;99.90
10312;DHT22;5201;48.776;9.128;2023-08-08T07:23:45;19.10;99.90
10312;DHT22;5201;48.776;9.128;2023-08-08T07:26:11;19.20;99.90
10312;DHT22;5201;48.776;9.128;2023-08-08T07:28:37;19.30;99.90
10312;DHT22;5201;48.776;9.128;2023-08-08T07:31:02;19.90;99.90
10312;DHT22;5201;48.776;9.128;2023-08-08T07:33:28;19.30;99.90
10312;DHT22;5201;48.776;9.128;2023-08-08T07:35:54;19.80;99.90
10312;DHT22;5201;48.776;9.128;2023-08-08T07:38:19;19.60;99.90
10312;DHT22;5201;48.776;9.128;2023-08-08T07:40:45;20.00;99.90
10312;DHT22;5201;48.776;9.128;2023-08-08T07:43:11;19.90;99.90
10312;DHT22;5201;48.776;9.128;2023-08-08T07:45:37;20.20;99.90
10312;DHT22;5201;48.776;9.128;2023-08-08T07:48:03;20.20;99.90
10312;DHT22;5201;48.776;9.128;2023-08-08T07:50:29;20.30;99.90
10312;DHT22;5201;48.776;9.128;2023-08-08T07:52:54;20.30;99.90
10312;DHT22;5201;48.776;9.128;2023-08-08T07:55:20;20.30;99.90
10312;DHT22;5201;48.776;9.128;2023-08-08T07:57:46;20.20;99.90
10312;DHT22;5201;48.776;9.128;2023-08-08T08:00:11;20.00;99.90
10312;DHT22;5201;48.776;9.128;2023-08-08T08:02:39;19.80;99.90
10312;DHT22;5201;48.776;9.128;2023-08-08T08:05:04;19.60;99.90
10312;DHT22;5201;48.776;9.128;2023-08-08T08:07:33;19.60;99.90
10312;DHT22;5201;48.776;9.128;2023-08-08T08:09:59;19.70;99.90
10312;DHT22;5201;48.776;9.128;2023-08-08T08:12:24;19.80;99.90
10312;DHT22;5201;48.776;9.128;2023-08-08T08:14:50;20.00;99.90
10312;DHT22;5201;48.776;9.128;2023-08-08T08:17:15;20.40;99.90
10312;DHT22;5201;48.776;9.128;2023-08-08T08:19:41;20.10;99.90
10312;DHT22;5201;48.776;9.128;2023-08-08T08:22:07;20.20;99.90
10312;DHT22;5201;48.776;9.128;2023-08-08T08:24:32;20.10;99.90
10312;DHT22;5201;48.776;9.128;2023-08-08T08:26:58;20.10;99.90
10312;DHT22;5201;48.776;9.128;2023-08-08T08:29:24;20.20;99.90
10312;DHT22;5201;48.776;9.128;2023-08-08T08:31:49;20.10;99.90
10312;DHT22;5201;48.776;9.128;2023-08-08T08:34:15;20.10;99.90
10312;DHT22;5201;48.776;9.128;2023-08-08T08:36:40;20.20;99.90
10312;DHT22;5201;48.776;9.128;2023-08-08T08:39:06;20.10;99.90
10312;DHT22;5201;48.776;9.128;2023-08-08T08:41:33;20.10;99.90
10312;DHT22;5201;48.776;9.128;2023-08-08T08:44:01;20.10;99.90
10312;DHT22;5201;48.776;9.128;2023-08-08T08:46:27;20.20;99.90
10312;DHT22;5201;48.776;9.128;2023-08-08T08:48:55;20.10;99.90
10312;DHT22;5201;48.776;9.128;2023-08-08T08:51:23;19.90;99.90
10312;DHT22;5201;48.776;9.128;2023-08-08T08:53:49;20.30;99.90
10312;DHT22;5201;48.776;9.128;2023-08-08T08:56:15;20.00;99.90
10312;DHT22;5201;48.776;9.128;2023-08-08T08:58:42;20.20;99.90
10312;DHT22;5201;48.776;9.128;2023-08-08T09:01:09;20.40;99.90
10312;DHT22;5201;48.776;9.128;2023-08-08T09:03:38;20.60;99.90
10312;DHT22;5201;48.776;9.128;2023-08-08T09:06:05;20.60;99.90
10312;DHT22;5201;48.776;9.128;2023-08-08T09:08:31;20.60;99.90
10312;DHT22;5201;48.776;9.128;2023-08-08T09:10:56;20.50;99.90
10312;DHT22;5201;48.776;9.128;2023-08-08T09:13:23;22.10;99.90
10312;DHT22;5201;48.776;9.128;2023-08-08T09:15:51;20.90;99.90
10312;DHT22;5201;48.776;9.128;2023-08-08T09:18:17;21.10;99.90
10312;DHT22;5201;48.776;9.128;2023-08-08T09:20:49;21.20;99.90
10312;DHT22;5201;48.776;9.128;2023-08-08T09:23:15;21.20;99.90
10312;DHT22;5201;48.776;9.128;2023-08-08T09:25:40;21.30;99.90
10312;DHT22;5201;48.776;9.128;2023-08-08T09:28:06;21.30;99.90
10312;DHT22;5201;48.776;9.128;2023-08-08T09:30:32;21.30;99.90
10312;DHT22;5201;48.776;9.128;2023-08-08T09:32:59;21.30;99.90
10312;DHT22;5201;48.776;9.128;2023-08-08T09:35:25;21.30;99.90
10312;DHT22;5201;48.776;9.128;2023-08-08T09:37:53;21.40;99.90
10312;DHT22;5201;48.776;9.128;2023-08-08T09:40:19;21.30;99.90
10312;DHT22;5201;48.776;9.128;2023-08-08T09:42:46;21.30;99.90
10312;DHT22;5201;48.776;9.128;2023-08-08T09:45:12;21.30;99.90
10312;DHT22;5201;48.776;9.128;2023-08-08T09:47:38;21.20;99.90
10312;DHT22;5201;48.776;9.128;2023-08-08T09:50:05;21.20;99.90
10312;DHT22;5201;48.776;9.128;2023-08-08T09:52:31;21.50;99.90
10312;DHT22;5201;48.776;9.128;2023-08-08T09:54:58;21.70;99.90
10312;DHT22;5201;48.776;9.128;2023-08-08T09:57:25;21.80;99.90
10312;DHT22;5201;48.776;9.128;2023-08-08T09:59:51;22.10;99.90
10312;DHT22;5201;48.776;9.128;2023-08-08T10:02:17;22.10;99.90
10312;DHT22;5201;48.776;9.128;2023-08-08T10:04:45;22.20;99.90
10312;DHT22;5201;48.776;9.128;2023-08-08T10:07:10;22.30;99.90
10312;DHT22;5201;48.776;9.128;2023-08-08T10:09:36;22.20;99.90
10312;DHT22;5201;48.776;9.128;2023-08-08T10:12:04;21.90;98.70
10312;DHT22;5201;48.776;9.128;2023-08-08T10:14:31;21.70;98.20
10312;DHT22;5201;48.776;9.128;2023-08-08T10:16:57;21.60;98.30
10312;DHT22;5201;48.776;9.128;2023-08-08T10:19:24;21.90;98.80
10312;DHT22;5201;48.776;9.128;2023-08-08T10:21:57;22.50;96.80
10312;DHT22;5201;48.776;9.128;2023-08-08T10:24:23;22.30;97.40
10312;DHT22;5201;48.776;9.128;2023-08-08T10:26:58;22.50;96.70
10312;DHT22;5201;48.776;9.128;2023-08-08T10:29:26;22.50;97.10
10312;DHT22;5201;48.776;9.128;2023-08-08T10:32:02;22.70;96.90
10312;DHT22;5201;48.776;9.128;2023-08-08T10:37:05;23.10;97.10
10312;DHT22;5201;48.776;9.128;2023-08-08T10:39:31;23.40;95.90
10312;DHT22;5201;48.776;9.128;2023-08-08T10:42:01;23.30;95.20
10312;DHT22;5201;48.776;9.128;2023-08-08T10:44:28;23.00;94.80
10312;DHT22;5201;48.776;9.128;2023-08-08T10:46:53;22.50;95.10
10312;DHT22;5201;48.776;9.128;2023-08-08T10:49:20;22.50;95.40
10312;DHT22;5201;48.776;9.128;2023-08-08T10:51:47;22.40;94.90
10312;DHT22;5201;48.776;9.128;2023-08-08T10:54:14;22.50;95.80
10312;DHT22;5201;48.776;9.128;2023-08-08T10:56:40;22.60;95.10
10312;DHT22;5201;48.776;9.128;2023-08-08T10:59:18;22.80;95.10
10312;DHT22;5201;48.776;9.128;2023-08-08T11:01:49;23.30;95.10
10312;DHT22;5201;48.776;9.128;2023-08-08T11:04:22;23.70;94.70
10312;DHT22;5201;48.776;9.128;2023-08-08T11:06:53;24.10;94.50
10312;DHT22;5201;48.776;9.128;2023-08-08T11:09:19;24.10;94.00
10312;DHT22;5201;48.776;9.128;2023-08-08T11:11:45;24.30;94.10
10312;DHT22;5201;48.776;9.128;2023-08-08T11:14:19;24.20;94.00
10312;DHT22;5201;48.776;9.128;2023-08-08T11:16:46;24.10;93.60
10312;DHT22;5201;48.776;9.128;2023-08-08T11:19:13;23.90;94.90
10312;DHT22;5201;48.776;9.128;2023-08-08T11:21:45;23.70;94.50
10312;DHT22;5201;48.776;9.128;2023-08-08T11:24:12;23.70;94.20
10312;DHT22;5201;48.776;9.128;2023-08-08T11:26:40;23.80;93.40
10312;DHT22;5201;48.776;9.128;2023-08-08T11:29:06;23.90;93.40
10312;DHT22;5201;48.776;9.128;2023-08-08T11:31:34;23.90;92.20
10312;DHT22;5201;48.776;9.128;2023-08-08T11:34:00;23.90;92.50
10312;DHT22;5201;48.776;9.128;2023-08-08T11:36:29;24.10;92.00
10312;DHT22;5201;48.776;9.128;2023-08-08T11:38:56;24.10;93.20
10312;DHT22;5201;48.776;9.128;2023-08-08T11:41:23;24.20;94.00
10312;DHT22;5201;48.776;9.128;2023-08-08T11:43:50;24.20;92.40
10312;DHT22;5201;48.776;9.128;2023-08-08T11:46:17;24.10;92.90
10312;DHT22;5201;48.776;9.128;2023-08-08T11:48:45;23.50;93.00
10312;DHT22;5201;48.776;9.128;2023-08-08T11:51:14;23.20;94.00
10312;DHT22;5201;48.776;9.128;2023-08-08T11:53:50;23.50;93.80
10312;DHT22;5201;48.776;9.128;2023-08-08T11:56:18;23.50;92.20
10312;DHT22;5201;48.776;9.128;2023-08-08T11:58:44;23.60;91.90
10312;DHT22;5201;48.776;9.128;2023-08-08T12:01:09;23.80;91.80
10312;DHT22;5201;48.776;9.128;2023-08-08T12:03:36;23.60;91.90
10312;DHT22;5201;48.776;9.128;2023-08-08T12:06:14;23.70;92.10
10312;DHT22;5201;48.776;9.128;2023-08-08T12:08:42;24.00;91.60
10312;DHT22;5201;48.776;9.128;2023-08-08T12:11:08;24.10;91.60
10312;DHT22;5201;48.776;9.128;2023-08-08T12:13:37;24.30;92.80
10312;DHT22;5201;48.776;9.128;2023-08-08T12:16:05;24.50;92.00
10312;DHT22;5201;48.776;9.128;2023-08-08T12:18:32;24.50;92.40
10312;DHT22;5201;48.776;9.128;2023-08-08T12:20:57;24.50;91.70
10312;DHT22;5201;48.776;9.128;2023-08-08T12:23:25;24.40;91.80
10312;DHT22;5201;48.776;9.128;2023-08-08T12:25:52;24.30;91.50
10312;DHT22;5201;48.776;9.128;2023-08-08T12:28:18;24.10;92.20
10312;DHT22;5201;48.776;9.128;2023-08-08T12:30:44;24.00;91.70
10312;DHT22;5201;48.776;9.128;2023-08-08T12:33:09;23.80;92.20
10312;DHT22;5201;48.776;9.128;2023-08-08T12:35:35;23.90;92.30
10312;DHT22;5201;48.776;9.128;2023-08-08T12:38:00;23.50;92.50
10312;DHT22;5201;48.776;9.128;2023-08-08T12:40:26;23.50;93.50
10312;DHT22;5201;48.776;9.128;2023-08-08T12:42:51;23.50;93.80
10312;DHT22;5201;48.776;9.128;2023-08-08T12:45:17;23.50;93.10
10312;DHT22;5201;48.776;9.128;2023-08-08T12:47:45;23.80;93.40
10312;DHT22;5201;48.776;9.128;2023-08-08T12:50:11;23.40;92.50
10312;DHT22;5201;48.776;9.128;2023-08-08T12:52:37;23.30;92.30
10312;DHT22;5201;48.776;9.128;2023-08-08T12:55:04;23.30;92.80
10312;DHT22;5201;48.776;9.128;2023-08-08T12:57:30;23.20;92.70
10312;DHT22;5201;48.776;9.128;2023-08-08T12:59:56;23.10;92.80
10312;DHT22;5201;48.776;9.128;2023-08-08T13:02:21;23.30;93.00
10312;DHT22;5201;48.776;9.128;2023-08-08T13:04:47;23.10;93.40
10312;DHT22;5201;48.776;9.128;2023-08-08T13:07:12;23.00;93.20
10312;DHT22;5201;48.776;9.128;2023-08-08T13:09:38;23.00;93.60
10312;DHT22;5201;48.776;9.128;2023-08-08T13:12:04;23.00;93.60
10312;DHT22;5201;48.776;9.128;2023-08-08T13:14:30;23.10;93.50
10312;DHT22;5201;48.776;9.128;2023-08-08T13:16:56;23.00;94.00
10312;DHT22;5201;48.776;9.128;2023-08-08T13:19:22;23.10;94.10
10312;DHT22;5201;48.776;9.128;2023-08-08T13:21:52;23.00;94.80
10312;DHT22;5201;48.776;9.128;2023-08-08T13:24:20;22.90;94.90
10312;DHT22;5201;48.776;9.128;2023-08-08T13:26:48;22.80;94.70
10312;DHT22;5201;48.776;9.128;2023-08-08T13:29:14;22.70;94.80
10312;DHT22;5201;48.776;9.128;2023-08-08T13:31:40;22.70;95.20
10312;DHT22;5201;48.776;9.128;2023-08-08T13:34:05;22.60;95.70
10312;DHT22;5201;48.776;9.128;2023-08-08T13:36:31;22.70;95.50
10312;DHT22;5201;48.776;9.128;2023-08-08T13:38:56;22.80;95.80
10312;DHT22;5201;48.776;9.128;2023-08-08T13:41:22;23.10;96.10
10312;DHT22;5201;48.776;9.128;2023-08-08T13:43:48;22.60;95.90
10312;DHT22;5201;48.776;9.128;2023-08-08T13:46:14;22.70;98.70
10312;DHT22;5201;48.776;9.128;2023-08-08T13:48:39;22.00;98.00
10312;DHT22;5201;48.776;9.128;2023-08-08T13:51:05;21.70;98.20
10312;DHT22;5201;48.776;9.128;2023-08-08T13:53:31;21.50;97.20
10312;DHT22;5201;48.776;9.128;2023-08-08T13:55:56;21.60;96.90
10312;DHT22;5201;48.776;9.128;2023-08-08T13:58:22;22.10;96.20
10312;DHT22;5201;48.776;9.128;2023-08-08T14:00:49;21.70;97.30
10312;DHT22;5201;48.776;9.128;2023-08-08T14:03:14;21.90;98.60
10312;DHT22;5201;48.776;9.128;2023-08-08T14:05:40;22.10;98.10
10312;DHT22;5201;48.776;9.128;2023-08-08T14:08:05;22.20;96.30
10312;DHT22;5201;48.776;9.128;2023-08-08T14:10:32;22.20;97.00
10312;DHT22;5201;48.776;9.128;2023-08-08T14:12:57;22.30;97.20
10312;DHT22;5201;48.776;9.128;2023-08-08T14:15:23;22.60;96.80
10312;DHT22;5201;48.776;9.128;2023-08-08T14:17:49;22.40;95.40
10312;DHT22;5201;48.776;9.128;2023-08-08T14:20:14;22.50;95.30
10312;DHT22;5201;48.776;9.128;2023-08-08T14:22:44;22.20;95.10
10312;DHT22;5201;48.776;9.128;2023-08-08T14:25:10;22.10;95.80
10312;DHT22;5201;48.776;9.128;2023-08-08T14:27:36;22.20;95.70
10312;DHT22;5201;48.776;9.128;2023-08-08T14:30:03;22.20;95.80
10312;DHT22;5201;48.776;9.128;2023-08-08T14:32:29;22.20;96.20
10312;DHT22;5201;48.776;9.128;2023-08-08T14:34:54;22.10;96.00
10312;DHT22;5201;48.776;9.128;2023-08-08T14:37:20;21.90;96.70
10312;DHT22;5201;48.776;9.128;2023-08-08T14:39:47;21.90;96.60
10312;DHT22;5201;48.776;9.128;2023-08-08T14:42:12;22.10;98.10
10312;DHT22;5201;48.776;9.128;2023-08-08T14:44:38;22.20;96.50
10312;DHT22;5201;48.776;9.128;2023-08-08T14:47:04;22.30;95.80
10312;DHT22;5201;48.776;9.128;2023-08-08T14:49:30;22.20;96.00
10312;DHT22;5201;48.776;9.128;2023-08-08T14:51:56;22.20;97.00
10312;DHT22;5201;48.776;9.128;2023-08-08T14:54:21;22.10;96.50
10312;DHT22;5201;48.776;9.128;2023-08-08T14:56:47;22.10;96.70
10312;DHT22;5201;48.776;9.128;2023-08-08T14:59:13;22.10;96.20
10312;DHT22;5201;48.776;9.128;2023-08-08T15:01:39;22.10;96.10
10312;DHT22;5201;48.776;9.128;2023-08-08T15:04:04;21.90;96.00
10312;DHT22;5201;48.776;9.128;2023-08-08T15:06:30;21.90;96.90
10312;DHT22;5201;48.776;9.128;2023-08-08T15:08:57;21.90;96.50
10312;DHT22;5201;48.776;9.128;2023-08-08T15:11:22;22.20;97.10
10312;DHT22;5201;48.776;9.128;2023-08-08T15:13:48;21.90;97.00
10312;DHT22;5201;48.776;9.128;2023-08-08T15:16:14;21.80;97.10
10312;DHT22;5201;48.776;9.128;2023-08-08T15:18:40;21.80;97.10
10312;DHT22;5201;48.776;9.128;2023-08-08T15:21:05;21.80;97.80
10312;DHT22;5201;48.776;9.128;2023-08-08T15:23:31;22.40;97.70
10312;DHT22;5201;48.776;9.128;2023-08-08T15:25:58;22.00;97.60
10312;DHT22;5201;48.776;9.128;2023-08-08T15:28:24;22.10;97.50
10312;DHT22;5201;48.776;9.128;2023-08-08T15:30:51;22.30;97.30
10312;DHT22;5201;48.776;9.128;2023-08-08T15:33:16;22.30;96.80
10312;DHT22;5201;48.776;9.128;2023-08-08T15:35:42;22.30;96.70
10312;DHT22;5201;48.776;9.128;2023-08-08T15:38:08;22.30;96.90
10312;DHT22;5201;48.776;9.128;2023-08-08T15:40:33;22.20;97.00
10312;DHT22;5201;48.776;9.128;2023-08-08T15:42:59;22.20;96.60
10312;DHT22;5201;48.776;9.128;2023-08-08T15:45:25;22.20;97.70